Time;durP1;ratioP1;P1;durP2;ratioP2;P2;SDS_P1;SDS_P2;PMS_P1;PMS_P2;Temp;Humidity;BMP_temperature;BMP_pressure;BME280_temperature;BME280_humidity;BME280_pressure;Samples;Min_cycle;Max_cycle;Signal;HPM_P1;HPM_P2
2024/04/17 00:01:46;;;;;;;4.40;1.20;;;17.50;74.90;;;;;;5430658;26;20003;-59
2024/04/17 00:04:12;;;;;;;4.32;1.10;;;17.40;74.80;;;;;;5433008;26;20338;-60
2024/04/17 00:06:37;;;;;;;2.75;1.10;;;17.40;74.80;;;;;;5432939;26;20133;-60
2024/04/17 00:09:03;;;;;;;2.05;0.90;;;17.40;74.80;;;;;;5433113;26;20458;-60
2024/04/17 00:11:29;;;;;;;3.20;1.10;;;17.40;74.90;;;;;;5423615;26;20000;-59
2024/04/17 00:13:54;;;;;;;3.25;1.15;;;17.40;74.90;;;;;;5433789;26;19995;-60
2024/04/17 00:16:20;;;;;;;3.60;1.10;;;17.40;74.90;;;;;;5428993;26;19995;-60
2024/04/17 00:18:45;;;;;;;4.43;1.30;;;17.40;74.90;;;;;;5427246;26;20006;-59
2024/04/17 00:21:11;;;;;;;3.33;1.25;;;17.30;74.90;;;;;;5430992;26;19995;-60
2024/04/17 00:23:38;;;;;;;2.40;0.90;;;17.30;74.90;;;;;;5424297;26;19996;-60
2024/04/17 00:26:03;;;;;;;3.20;1.00;;;17.30;74.90;;;;;;5432993;26;20075;-60
2024/04/17 00:28:29;;;;;;;4.72;1.30;;;17.30;74.90;;;;;;5429482;26;20003;-61
2024/04/17 00:30:55;;;;;;;3.75;1.23;;;17.30;74.90;;;;;;5446759;26;20021;-61
2024/04/17 00:33:20;;;;;;;4.15;1.00;;;17.30;75.00;;;;;;5437454;26;19992;-60
2024/04/17 00:35:46;;;;;;;2.65;1.00;;;17.30;74.90;;;;;;5441112;26;19991;-61
2024/04/17 00:38:11;;;;;;;3.63;1.40;;;17.30;75.00;;;;;;5435690;26;19995;-60
2024/04/17 00:40:37;;;;;;;3.22;1.10;;;17.30;75.00;;;;;;5433455;26;20002;-61
2024/04/17 00:43:03;;;;;;;3.78;1.10;;;17.30;75.00;;;;;;5438489;26;20001;-61
2024/04/17 00:45:47;;;;;;;3.47;1.13;;;17.30;75.00;;;;;;5430874;26;19992;-60
2024/04/17 00:48:14;;;;;;;3.90;1.00;;;17.30;75.00;;;;;;5431014;26;20010;-60
2024/04/17 00:50:48;;;;;;;2.95;1.00;;;17.20;74.90;;;;;;5436008;26;20014;-60
2024/04/17 00:53:17;;;;;;;4.28;1.20;;;17.20;75.00;;;;;;5439234;26;19995;-61
2024/04/17 00:55:44;;;;;;;3.17;1.10;;;17.20;75.00;;;;;;5443468;26;19994;-61
2024/04/17 00:58:11;;;;;;;2.72;1.05;;;17.20;75.00;;;;;;5443580;26;20007;-60
2024/04/17 01:00:37;;;;;;;4.38;1.20;;;17.20;75.10;;;;;;5434358;26;20023;-61
2024/04/17 01:03:05;;;;;;;3.92;1.33;;;17.20;75.10;;;;;;5451284;26;20048;-61
2024/04/17 01:05:34;;;;;;;4.22;1.20;;;17.20;75.10;;;;;;5439809;26;20006;-60
2024/04/17 01:08:00;;;;;;;4.07;1.17;;;17.20;75.10;;;;;;5444617;26;19995;-61
2024/04/17 01:10:26;;;;;;;4.80;1.10;;;17.20;75.10;;;;;;5447391;26;20018;-61
2024/04/17 01:12:52;;;;;;;4.65;1.17;;;17.20;75.10;;;;;;5445882;26;20703;-61
2024/04/17 01:15:21;;;;;;;3.15;1.30;;;17.10;75.00;;;;;;5445244;26;20030;-61
2024/04/17 01:17:47;;;;;;;3.23;1.17;;;17.10;75.00;;;;;;5440194;26;20003;-60
2024/04/17 01:20:13;;;;;;;3.53;1.10;;;17.10;75.00;;;;;;5446595;26;20902;-60
2024/04/17 01:22:39;;;;;;;4.22;1.00;;;17.10;75.00;;;;;;5456914;26;20015;-61
2024/04/17 01:25:04;;;;;;;3.42;1.10;;;17.10;75.00;;;;;;5446148;26;19999;-61
2024/04/17 01:27:32;;;;;;;3.45;1.23;;;17.10;75.00;;;;;;5448512;26;20036;-60
2024/04/17 01:29:58;;;;;;;2.95;1.10;;;17.10;75.00;;;;;;5448298;26;20014;-60
2024/04/17 01:32:26;;;;;;;4.13;1.30;;;17.10;75.00;;;;;;5448487;26;19999;-60
2024/04/17 01:34:51;;;;;;;3.38;1.08;;;17.10;75.00;;;;;;5450789;26;20025;-61
2024/04/17 01:37:17;;;;;;;4.85;1.50;;;17.10;74.90;;;;;;5440146;26;20003;-60
2024/04/17 01:39:43;;;;;;;3.33;1.30;;;17.10;75.00;;;;;;5438240;26;20009;-60
2024/04/17 01:42:09;;;;;;;3.92;1.10;;;17.10;75.00;;;;;;5436904;26;20355;-60
2024/04/17 01:44:34;;;;;;;4.60;1.33;;;17.10;74.90;;;;;;5441313;26;20018;-61
2024/04/17 01:47:00;;;;;;;3.22;1.20;;;17.10;74.90;;;;;;5431481;26;20491;-60
2024/04/17 01:49:25;;;;;;;3.65;1.23;;;17.10;74.90;;;;;;5433160;26;20019;-60
2024/04/17 01:51:51;;;;;;;4.43;1.20;;;17.10;74.90;;;;;;5432702;26;20014;-60
2024/04/17 01:54:17;;;;;;;3.95;1.10;;;17.00;74.80;;;;;;5434249;26;20075;-60
2024/04/17 01:56:42;;;;;;;3.03;1.10;;;17.00;74.80;;;;;;5435836;26;20042;-60
2024/04/17 01:59:08;;;;;;;3.55;1.20;;;17.00;74.80;;;;;;5431283;26;20009;-60
2024/04/17 02:01:37;;;;;;;3.60;1.20;;;17.00;74.80;;;;;;5427697;26;20011;-60
2024/04/17 02:04:02;;;;;;;3.28;1.13;;;17.00;74.80;;;;;;5441686;26;19998;-60
2024/04/17 02:06:28;;;;;;;3.58;1.15;;;17.10;74.90;;;;;;5442294;26;20010;-61
2024/04/17 02:08:53;;;;;;;3.75;1.10;;;17.00;74.80;;;;;;5436051;26;20000;-60
2024/04/17 02:11:19;;;;;;;3.10;1.10;;;17.00;74.80;;;;;;5435864;26;21014;-60
2024/04/17 02:13:46;;;;;;;3.03;1.00;;;17.00;74.70;;;;;;5437170;26;20006;-60
2024/04/17 02:16:12;;;;;;;3.60;1.20;;;17.00;74.70;;;;;;5428777;26;20015;-60
2024/04/17 02:18:37;;;;;;;3.47;1.10;;;17.00;74.80;;;;;;5426891;26;20817;-60
2024/04/17 02:21:04;;;;;;;3.28;1.20;;;17.00;74.80;;;;;;5437679;26;19999;-60
2024/04/17 02:23:32;;;;;;;5.57;1.40;;;16.90;74.70;;;;;;5424341;26;20033;-59
2024/04/17 02:25:57;;;;;;;3.08;1.05;;;17.00;74.80;;;;;;5420090;26;19995;-60
2024/04/17 02:28:23;;;;;;;4.55;1.20;;;17.00;74.80;;;;;;5420748;26;21032;-60
2024/04/17 02:30:49;;;;;;;2.80;1.00;;;16.90;74.80;;;;;;5425759;26;20000;-60
2024/04/17 02:33:15;;;;;;;4.05;1.20;;;16.90;74.80;;;;;;5417152;26;20013;-59
2024/04/17 02:35:40;;;;;;;4.28;1.13;;;16.90;74.80;;;;;;5435241;26;20554;-60
2024/04/17 02:38:06;;;;;;;4.05;1.23;;;16.90;74.80;;;;;;5429572;26;20002;-60
2024/04/17 02:40:31;;;;;;;4.05;1.42;;;16.90;74.80;;;;;;5433408;26;19999;-60
2024/04/17 02:42:57;;;;;;;4.65;1.20;;;16.90;74.80;;;;;;5426863;26;19995;-60
2024/04/17 02:45:23;;;;;;;2.58;1.00;;;16.80;74.70;;;;;;5431630;26;20007;-60
2024/04/17 02:47:48;;;;;;;3.40;1.10;;;16.90;75.40;;;;;;5427989;26;20014;-61
2024/04/17 02:50:14;;;;;;;3.80;1.20;;;16.80;74.80;;;;;;5428847;26;20687;-60
2024/04/17 02:52:39;;;;;;;4.22;1.60;;;16.80;74.80;;;;;;5420419;26;20010;-61
2024/04/17 02:55:05;;;;;;;3.83;1.13;;;16.80;74.80;;;;;;5425662;26;20442;-61
2024/04/17 02:57:31;;;;;;;3.60;1.25;;;16.80;74.80;;;;;;5428806;26;19999;-61
2024/04/17 02:59:56;;;;;;;4.35;1.20;;;16.80;74.80;;;;;;5428452;26;20008;-61
2024/04/17 03:02:22;;;;;;;3.55;1.20;;;16.80;74.80;;;;;;5436972;26;20003;-60
2024/04/17 03:04:48;;;;;;;4.03;1.27;;;16.80;74.80;;;;;;5443393;26;20035;-61
2024/04/17 03:07:13;;;;;;;2.83;1.05;;;16.80;74.90;;;;;;5437558;26;20049;-61
2024/04/17 03:09:39;;;;;;;3.67;1.10;;;16.80;74.80;;;;;;5429091;26;20456;-60
2024/04/17 03:12:05;;;;;;;3.35;1.13;;;16.80;74.80;;;;;;5438620;26;20014;-61
2024/04/17 03:14:31;;;;;;;3.15;1.20;;;16.70;74.70;;;;;;5431881;26;19999;-61
2024/04/17 03:16:56;;;;;;;5.18;1.40;;;16.70;74.60;;;;;;5437711;26;20027;-60
2024/04/17 03:19:22;;;;;;;3.60;1.35;;;16.70;74.70;;;;;;5430564;26;20043;-60
2024/04/17 03:21:47;;;;;;;4.93;1.10;;;16.70;74.70;;;;;;5436794;26;20406;-61
2024/04/17 03:24:13;;;;;;;3.55;1.10;;;16.70;74.70;;;;;;5434804;26;20000;-60
2024/04/17 03:26:38;;;;;;;3.75;1.27;;;16.70;74.70;;;;;;5431834;26;20006;-60
2024/04/17 03:29:04;;;;;;;3.67;1.25;;;16.70;74.70;;;;;;5436224;26;20149;-61
2024/04/17 03:31:30;;;;;;;5.03;1.10;;;16.70;74.60;;;;;;5435403;26;20005;-60
2024/04/17 03:33:55;;;;;;;3.03;1.13;;;16.70;74.60;;;;;;5425236;26;20572;-61
2024/04/17 03:36:21;;;;;;;3.05;1.10;;;16.70;74.60;;;;;;5428911;26;20083;-60
2024/04/17 03:38:47;;;;;;;3.38;1.17;;;16.70;74.50;;;;;;5442574;26;20005;-60
2024/04/17 03:41:12;;;;;;;4.22;1.17;;;16.80;74.60;;;;;;5436390;26;20007;-60
2024/04/17 03:43:38;;;;;;;4.57;1.20;;;16.80;74.50;;;;;;5435460;26;20035;-60
2024/04/17 03:46:07;;;;;;;3.95;1.10;;;16.80;74.40;;;;;;5435027;26;20129;-60
2024/04/17 03:48:32;;;;;;;3.45;1.00;;;16.80;74.40;;;;;;5426867;26;19996;-60
2024/04/17 03:50:58;;;;;;;4.38;1.50;;;16.90;74.40;;;;;;5424829;26;20005;-60
2024/04/17 03:53:25;;;;;;;4.63;1.42;;;16.90;74.40;;;;;;5432195;26;20055;-61
2024/04/17 03:55:51;;;;;;;4.20;1.30;;;16.90;74.30;;;;;;5423094;26;19999;-60
2024/04/17 03:58:17;;;;;;;4.35;1.20;;;16.90;74.20;;;;;;5423649;26;20000;-60
2024/04/17 04:00:42;;;;;;;2.97;1.10;;;17.00;74.20;;;;;;5434893;26;20027;-60
2024/04/17 04:03:08;;;;;;;4.78;1.20;;;17.00;74.10;;;;;;5435877;26;19999;-60
2024/04/17 04:05:34;;;;;;;3.03;1.10;;;17.10;74.10;;;;;;5430312;26;19995;-60
2024/04/17 04:07:59;;;;;;;4.40;1.20;;;17.00;74.00;;;;;;5427896;26;20465;-60
2024/04/17 04:10:27;;;;;;;3.80;1.20;;;17.00;74.00;;;;;;5423743;26;20079;-60
2024/04/17 04:12:53;;;;;;;3.08;1.10;;;17.10;74.00;;;;;;5434669;26;20011;-60
2024/04/17 04:15:19;;;;;;;4.68;1.17;;;17.10;73.90;;;;;;5424159;26;20031;-60
2024/04/17 04:17:47;;;;;;;3.95;1.30;;;17.10;73.80;;;;;;5414504;26;20531;-59
2024/04/17 04:20:13;;;;;;;4.35;1.25;;;17.10;73.80;;;;;;5431922;26;19999;-59
2024/04/17 04:22:38;;;;;;;3.70;1.20;;;17.10;73.80;;;;;;5425615;26;20019;-59
2024/04/17 04:25:05;;;;;;;4.50;1.40;;;17.20;73.90;;;;;;5426797;26;20003;-60
2024/04/17 04:27:30;;;;;;;5.10;1.20;;;17.20;73.80;;;;;;5415562;26;20011;-60
2024/04/17 04:29:56;;;;;;;5.47;1.42;;;17.20;73.80;;;;;;5424239;26;20562;-60
2024/04/17 04:32:22;;;;;;;5.72;1.80;;;17.20;74.30;;;;;;5424673;26;20585;-59
2024/04/17 04:34:47;;;;;;;4.85;1.30;;;17.20;75.40;;;;;;5430543;26;20010;-60
2024/04/17 04:37:13;;;;;;;4.63;1.52;;;17.20;76.60;;;;;;5434214;26;20379;-60
2024/04/17 04:39:38;;;;;;;4.35;1.30;;;17.20;77.10;;;;;;5437434;26;19995;-60
2024/04/17 04:42:04;;;;;;;3.03;1.10;;;17.20;76.00;;;;;;5416092;26;20949;-60
2024/04/17 04:44:30;;;;;;;3.72;1.35;;;17.20;75.60;;;;;;5422857;26;20065;-60
2024/04/17 04:46:56;;;;;;;4.82;1.48;;;17.20;75.30;;;;;;5438672;26;19995;-60
2024/04/17 04:49:22;;;;;;;3.65;1.25;;;17.20;75.10;;;;;;5426473;26;20014;-60
2024/04/17 04:51:49;;;;;;;4.07;1.20;;;17.20;74.90;;;;;;5438067;26;19998;-61
2024/04/17 04:54:14;;;;;;;3.67;1.17;;;17.20;74.80;;;;;;5423820;26;20072;-60
2024/04/17 04:56:42;;;;;;;2.97;1.10;;;17.20;74.80;;;;;;5432560;26;20007;-60
2024/04/17 04:59:08;;;;;;;4.80;1.27;;;17.20;74.70;;;;;;5422355;26;20669;-60
2024/04/17 05:01:33;;;;;;;5.38;1.20;;;17.20;74.70;;;;;;5432004;26;20075;-61
2024/04/17 05:03:59;;;;;;;4.30;1.40;;;17.20;74.70;;;;;;5429163;26;20743;-60
2024/04/17 05:06:24;;;;;;;4.60;1.23;;;17.20;74.80;;;;;;5430332;26;20003;-60
2024/04/17 05:08:52;;;;;;;3.75;1.27;;;17.20;74.80;;;;;;5429604;26;20000;-60
2024/04/17 05:11:18;;;;;;;4.75;1.10;;;17.20;74.70;;;;;;5436053;26;19999;-60
2024/04/17 05:13:43;;;;;;;3.22;1.13;;;17.20;74.70;;;;;;5427693;26;20736;-60
2024/04/17 05:16:09;;;;;;;2.60;1.00;;;17.20;74.60;;;;;;5443382;26;20003;-60
2024/04/17 05:18:35;;;;;;;4.63;1.33;;;17.20;74.60;;;;;;5435419;26;20529;-60
2024/04/17 05:21:00;;;;;;;5.40;1.30;;;17.10;74.50;;;;;;5428955;26;20010;-60
2024/04/17 05:23:26;;;;;;;5.82;1.35;;;17.10;74.50;;;;;;5444244;26;20399;-60
2024/04/17 05:25:51;;;;;;;5.60;1.48;;;17.20;74.60;;;;;;5425093;26;20418;-60
2024/04/17 05:28:17;;;;;;;4.57;1.20;;;17.20;74.60;;;;;;5426439;26;20004;-60
2024/04/17 05:30:43;;;;;;;7.60;1.40;;;17.20;74.50;;;;;;5435221;26;20131;-61
2024/04/17 05:33:08;;;;;;;5.70;1.40;;;17.20;74.50;;;;;;5430212;26;20027;-60
2024/04/17 05:35:36;;;;;;;4.15;1.27;;;17.20;74.50;;;;;;5422438;26;20027;-59
2024/04/17 05:38:02;;;;;;;6.70;1.25;;;17.20;75.30;;;;;;5437151;26;20021;-60
2024/04/17 05:40:27;;;;;;;5.82;1.90;;;17.20;75.00;;;;;;5420367;26;20000;-60
2024/04/17 05:42:53;;;;;;;6.57;1.38;;;17.30;76.10;;;;;;5428024;26;20335;-60
2024/04/17 05:45:19;;;;;;;7.00;1.20;;;17.30;75.60;;;;;;5428569;26;20050;-60
2024/04/17 05:47:44;;;;;;;5.75;1.40;;;17.30;75.80;;;;;;5427109;26;20014;-60
2024/04/17 05:50:10;;;;;;;7.65;1.48;;;17.30;76.20;;;;;;5435061;26;19994;-60
2024/04/17 05:52:35;;;;;;;5.88;1.42;;;17.30;76.30;;;;;;5440604;26;20002;-60
2024/04/17 05:55:01;;;;;;;6.70;1.45;;;17.30;76.50;;;;;;5442528;26;20011;-60
2024/04/17 05:57:26;;;;;;;8.80;1.42;;;17.30;76.70;;;;;;5440286;26;20015;-60
2024/04/17 05:59:52;;;;;;;7.82;1.85;;;17.30;77.20;;;;;;5435330;26;20017;-60
2024/04/17 06:02:18;;;;;;;5.40;1.40;;;17.30;77.00;;;;;;5436848;26;20003;-60
2024/04/17 06:04:43;;;;;;;7.40;1.70;;;17.40;77.10;;;;;;5418584;26;20012;-59
2024/04/17 06:07:10;;;;;;;7.60;1.60;;;17.40;77.10;;;;;;5431013;26;20068;-60
2024/04/17 06:09:36;;;;;;;8.82;1.70;;;17.40;77.00;;;;;;5420410;26;20027;-60
2024/04/17 06:12:01;;;;;;;7.88;1.50;;;17.40;77.00;;;;;;5432110;26;20680;-60
2024/04/17 06:14:27;;;;;;;5.53;1.50;;;17.40;76.90;;;;;;5441047;26;19995;-60
2024/04/17 06:16:53;;;;;;;8.57;1.60;;;17.50;76.80;;;;;;5439472;26;20010;-60
2024/04/17 06:19:21;;;;;;;8.02;1.50;;;17.40;76.70;;;;;;5431987;26;20001;-60
2024/04/17 06:21:47;;;;;;;6.72;1.40;;;17.40;76.70;;;;;;5431220;26;20003;-59
2024/04/17 06:24:12;;;;;;;3.65;1.30;;;17.40;76.80;;;;;;5433616;26;20013;-60
2024/04/17 06:26:39;;;;;;;7.75;1.50;;;17.40;76.80;;;;;;5421584;26;19995;-60
2024/04/17 06:29:04;;;;;;;8.50;1.77;;;17.40;76.80;;;;;;5415365;26;20026;-61
2024/04/17 06:31:32;;;;;;;5.07;1.50;;;17.40;77.00;;;;;;5416381;26;20000;-60
2024/04/17 06:33:58;;;;;;;8.18;1.40;;;17.40;77.00;;;;;;5426629;26;20571;-60
2024/04/17 06:36:23;;;;;;;4.00;1.10;;;17.40;77.00;;;;;;5422444;26;20003;-60
2024/04/17 06:38:49;;;;;;;8.07;1.55;;;17.40;77.10;;;;;;5413580;26;20454;-61
2024/04/17 06:41:17;;;;;;;9.85;1.80;;;17.40;77.10;;;;;;5428569;26;19995;-60
2024/04/17 06:43:42;;;;;;;7.78;1.42;;;17.40;77.20;;;;;;5422986;26;20011;-60
2024/04/17 06:46:08;;;;;;;5.72;1.33;;;17.40;77.20;;;;;;5431709;26;19999;-60
2024/04/17 06:48:33;;;;;;;6.00;1.85;;;17.40;77.10;;;;;;5423158;26;20630;-60
2024/04/17 06:50:59;;;;;;;7.18;1.77;;;17.40;77.20;;;;;;5435183;26;20003;-60
2024/04/17 06:53:25;;;;;;;7.03;1.70;;;17.40;77.20;;;;;;5427238;26;20003;-60
2024/04/17 06:55:50;;;;;;;4.88;1.52;;;17.40;77.20;;;;;;5437908;26;20018;-60
2024/04/17 06:58:16;;;;;;;6.50;1.70;;;17.40;77.10;;;;;;5441292;26;20018;-60
2024/04/17 07:00:41;;;;;;;9.82;1.95;;;17.30;77.20;;;;;;5424365;26;19999;-60
2024/04/17 07:03:07;;;;;;;6.50;1.70;;;17.40;77.20;;;;;;5435556;26;20361;-60
2024/04/17 07:05:33;;;;;;;6.93;1.70;;;17.30;77.10;;;;;;5427694;26;20011;-60
2024/04/17 07:08:02;;;;;;;6.18;1.60;;;17.30;77.10;;;;;;5429807;26;20015;-60
2024/04/17 07:10:30;;;;;;;4.50;1.40;;;17.30;77.10;;;;;;5416583;26;19995;-60
2024/04/17 07:12:55;;;;;;;5.88;1.80;;;17.30;77.10;;;;;;5439431;26;20309;-60
2024/04/17 07:15:21;;;;;;;8.30;1.70;;;17.30;76.90;;;;;;5422864;26;20040;-61
2024/04/17 07:17:47;;;;;;;6.78;1.48;;;17.30;76.80;;;;;;5428502;26;20002;-60
2024/04/17 07:20:15;;;;;;;5.65;1.80;;;17.30;76.70;;;;;;5428308;26;20010;-60
2024/04/17 07:22:41;;;;;;;6.43;1.60;;;17.30;76.60;;;;;;5422535;26;20072;-60
2024/04/17 07:25:07;;;;;;;7.00;1.60;;;17.30;76.50;;;;;;5432095;26;20453;-60
2024/04/17 07:27:32;;;;;;;8.23;1.70;;;17.30;76.50;;;;;;5431407;26;20006;-59
2024/04/17 07:29:58;;;;;;;7.53;1.60;;;17.30;76.50;;;;;;5436510;26;20003;-59
2024/04/17 07:32:23;;;;;;;5.78;1.70;;;17.20;76.50;;;;;;5423219;26;20457;-59
2024/04/17 07:34:51;;;;;;;6.63;1.45;;;17.20;76.40;;;;;;5427018;26;20006;-60
2024/04/17 07:37:18;;;;;;;5.75;1.40;;;17.20;76.30;;;;;;5432036;26;19998;-59
2024/04/17 07:39:44;;;;;;;5.35;1.70;;;17.20;76.20;;;;;;5424208;26;20000;-59
2024/04/17 07:42:09;;;;;;;4.22;1.30;;;17.20;76.20;;;;;;5421223;26;19999;-59
2024/04/17 07:44:35;;;;;;;5.78;1.40;;;17.20;76.20;;;;;;5421727;26;20444;-59
2024/04/17 07:47:03;;;;;;;6.00;1.60;;;17.20;76.10;;;;;;5422548;26;20026;-59
2024/04/17 07:49:29;;;;;;;5.60;1.40;;;17.10;76.00;;;;;;5433294;26;20092;-59
2024/04/17 07:51:54;;;;;;;7.00;1.73;;;17.10;76.00;;;;;;5415881;26;20008;-59
2024/04/17 07:54:20;;;;;;;6.97;1.50;;;17.10;76.00;;;;;;5429423;26;20485;-59
2024/04/17 07:56:45;;;;;;;5.43;1.60;;;17.10;75.90;;;;;;5420714;26;19999;-60
2024/04/17 07:59:11;;;;;;;4.43;1.50;;;17.10;75.90;;;;;;5439540;26;20076;-60
2024/04/17 08:01:36;;;;;;;5.45;1.60;;;17.10;75.90;;;;;;5418735;26;20046;-59
2024/04/17 08:04:02;;;;;;;4.70;1.45;;;17.10;75.80;;;;;;5435692;26;20736;-59
2024/04/17 08:06:28;;;;;;;4.47;1.40;;;17.10;75.80;;;;;;5429655;26;20004;-59
2024/04/17 08:08:53;;;;;;;4.20;1.30;;;17.10;75.80;;;;;;5438089;26;20022;-59
2024/04/17 08:11:19;;;;;;;5.18;1.50;;;17.00;75.70;;;;;;5427104;26;20010;-59
2024/04/17 08:13:45;;;;;;;4.80;1.55;;;17.00;75.70;;;;;;5425579;26;20017;-59
2024/04/17 08:16:11;;;;;;;5.78;1.60;;;17.00;75.60;;;;;;5425655;26;19995;-60
2024/04/17 08:18:39;;;;;;;5.22;1.50;;;17.00;75.60;;;;;;5433677;26;20003;-59
2024/04/17 08:21:04;;;;;;;3.70;1.45;;;17.00;75.60;;;;;;5422138;26;20014;-60
2024/04/17 08:23:30;;;;;;;3.45;1.27;;;17.00;75.60;;;;;;5426439;26;20009;-59
2024/04/17 08:25:56;;;;;;;5.82;1.55;;;17.00;75.70;;;;;;5419126;26;20572;-59
2024/04/17 08:28:21;;;;;;;6.43;1.50;;;17.00;75.70;;;;;;5425941;26;19995;-59
2024/04/17 08:30:47;;;;;;;4.40;1.38;;;17.00;75.60;;;;;;5418740;26;19999;-59
2024/04/17 08:33:13;;;;;;;5.13;1.25;;;17.00;76.20;;;;;;5427837;26;20010;-59
2024/04/17 08:35:39;;;;;;;6.40;1.42;;;16.90;75.60;;;;;;5426482;26;19999;-59
2024/04/17 08:38:05;;;;;;;5.47;1.55;;;16.90;75.50;;;;;;5427801;26;20457;-60
2024/04/17 08:40:31;;;;;;;4.80;1.42;;;16.90;75.50;;;;;;5440098;26;20429;-60
2024/04/17 08:43:04;;;;;;;4.15;1.20;;;16.90;75.40;;;;;;5427773;26;20011;-60
2024/04/17 08:45:35;;;;;;;4.43;1.40;;;16.90;75.40;;;;;;5426437;26;20057;-60
2024/04/17 08:48:01;;;;;;;;;;;16.90;75.40;;;;;;5432913;26;20557;-59
2024/04/17 08:50:31;;;;;;;4.38;1.40;;;16.90;75.40;;;;;;5429814;26;20273;-59
2024/04/17 08:53:07;;;;;;;5.03;1.45;;;16.90;75.40;;;;;;5432987;26;19998;-59
2024/04/17 08:55:33;;;;;;;4.68;1.20;;;16.90;75.40;;;;;;5428048;26;20012;-59
2024/04/17 08:57:59;;;;;;;5.78;1.70;;;16.90;75.90;;;;;;5434183;26;20104;-59
2024/04/17 09:00:27;;;;;;;4.47;1.40;;;16.90;75.30;;;;;;5440565;26;20012;-59
2024/04/17 09:02:57;;;;;;;3.78;1.40;;;16.90;75.30;;;;;;5431822;26;20010;-60
2024/04/17 09:05:27;;;;;;;5.35;1.42;;;17.00;75.30;;;;;;5422678;26;20069;-60
2024/04/17 09:07:53;;;;;;;3.70;1.20;;;17.00;75.30;;;;;;5423983;26;20013;-60
2024/04/17 09:10:19;;;;;;;4.70;1.30;;;17.00;75.20;;;;;;5429789;26;20049;-60
2024/04/17 09:12:48;;;;;;;5.07;1.30;;;17.00;75.20;;;;;;5415753;26;19999;-60
2024/04/17 09:15:19;;;;;;;4.13;1.13;;;17.00;75.10;;;;;;5418223;26;20045;-60
2024/04/17 09:17:48;;;;;;;3.85;0.98;;;17.00;75.00;;;;;;5420578;26;20010;-60
2024/04/17 09:20:16;;;;;;;3.67;1.20;;;17.00;75.00;;;;;;5420800;26;20010;-60
2024/04/17 09:22:41;;;;;;;4.00;1.50;;;17.00;75.00;;;;;;5419383;26;20030;-59
2024/04/17 09:25:16;;;;;;;5.45;1.30;;;17.00;75.00;;;;;;5434066;26;20074;-59
2024/04/17 09:27:46;;;;;;;3.85;1.35;;;17.00;75.00;;;;;;5436579;26;20394;-59
2024/04/17 09:30:12;;;;;;;;;;;17.00;75.00;;;;;;5429360;26;19995;-60
2024/04/17 09:32:38;;;;;;;3.92;1.20;;;17.00;75.00;;;;;;5434753;26;20363;-59
2024/04/17 09:35:08;;;;;;;2.10;1.08;;;17.00;75.00;;;;;;5424695;26;19991;-59
2024/04/17 09:37:35;;;;;;;4.07;1.38;;;17.00;74.90;;;;;;5428206;26;19991;-60
2024/04/17 09:40:06;;;;;;;3.47;1.30;;;16.90;74.80;;;;;;5433109;26;19995;-59
2024/04/17 09:42:35;;;;;;;3.63;1.27;;;16.90;75.00;;;;;;5438495;26;20007;-60
2024/04/17 09:45:01;;;;;;;4.30;1.30;;;16.90;75.00;;;;;;5424327;26;20458;-60
2024/04/17 09:47:32;;;;;;;3.83;1.20;;;16.90;75.00;;;;;;5421016;26;20003;-60
2024/04/17 09:49:59;;;;;;;3.30;1.05;;;16.90;75.00;;;;;;5427441;26;19999;-59
2024/04/17 09:52:28;;;;;;;9.20;2.40;;;16.90;75.00;;;;;;5430569;26;20671;-59
2024/04/17 09:54:56;;;;;;;21.60;4.65;;;16.90;75.50;;;;;;5434246;26;19999;-59
2024/04/17 09:57:22;;;;;;;13.25;3.30;;;16.90;77.60;;;;;;5424954;26;20509;-60
2024/04/17 09:59:49;;;;;;;5.40;1.50;;;16.90;79.60;;;;;;5420521;26;20015;-59
2024/04/17 10:02:16;;;;;;;7.68;2.05;;;16.90;78.80;;;;;;5437433;26;20010;-59
2024/04/17 10:04:43;;;;;;;5.25;1.42;;;16.90;77.80;;;;;;5428339;26;19999;-59
2024/04/17 10:07:13;;;;;;;5.53;1.45;;;16.90;77.40;;;;;;5439200;26;20545;-59
2024/04/17 10:09:40;;;;;;;3.25;1.20;;;16.90;77.00;;;;;;5426364;26;20836;-59
2024/04/17 10:12:10;;;;;;;4.07;1.20;;;16.90;76.90;;;;;;5428718;26;20005;-59
2024/04/17 10:14:37;;;;;;;5.35;1.50;;;16.90;76.70;;;;;;5420698;26;20437;-59
2024/04/17 10:17:06;;;;;;;3.10;1.13;;;16.90;76.60;;;;;;5432607;26;20010;-59
2024/04/17 10:19:35;;;;;;;3.85;1.20;;;16.90;76.50;;;;;;5424466;26;20003;-59
2024/04/17 10:22:04;;;;;;;4.22;1.20;;;16.90;76.50;;;;;;5426632;26;19999;-59
2024/04/17 10:24:30;;;;;;;6.25;1.20;;;16.90;76.40;;;;;;5424744;26;20027;-59
2024/04/17 10:26:58;;;;;;;5.18;1.30;;;16.90;76.40;;;;;;5426543;26;20003;-59
2024/04/17 10:29:30;;;;;;;5.30;1.30;;;16.90;76.30;;;;;;5422363;26;20510;-59
2024/04/17 10:32:06;;;;;;;3.85;1.27;;;16.90;76.30;;;;;;5421956;26;20014;-59
2024/04/17 10:34:51;;;;;;;3.85;1.15;;;16.90;76.30;;;;;;5408121;26;19995;-58
2024/04/17 10:37:18;;;;;;;5.72;1.35;;;16.90;76.20;;;;;;5423328;26;20449;-59
2024/04/17 10:39:45;;;;;;;4.05;1.20;;;16.90;76.20;;;;;;5441206;26;20035;-59
2024/04/17 10:42:15;;;;;;;4.93;1.15;;;16.90;76.20;;;;;;5421961;26;19995;-59
2024/04/17 10:44:49;;;;;;;4.53;1.30;;;16.90;76.70;;;;;;5413706;26;19995;-59
2024/04/17 10:47:19;;;;;;;4.63;1.20;;;16.90;76.40;;;;;;5426815;26;20052;-59
2024/04/17 10:49:54;;;;;;;3.08;1.48;;;17.00;76.40;;;;;;5427162;26;20018;-59
2024/04/17 10:52:23;;;;;;;3.72;1.15;;;17.00;76.30;;;;;;5430763;26;20034;-59
2024/04/17 10:54:50;;;;;;;3.53;1.00;;;17.00;76.30;;;;;;5434056;26;19999;-59
2024/04/17 10:57:16;;;;;;;3.53;1.17;;;17.00;76.30;;;;;;5427072;26;20046;-60
2024/04/17 10:59:49;;;;;;;4.43;1.30;;;17.00;76.20;;;;;;5423879;26;19999;-60
2024/04/17 11:02:15;;;;;;;3.45;1.17;;;17.00;76.20;;;;;;5430151;26;20584;-60
2024/04/17 11:04:41;;;;;;;2.85;1.20;;;17.00;76.10;;;;;;5433642;26;20061;-60
2024/04/17 11:07:08;;;;;;;4.93;1.30;;;17.00;76.60;;;;;;5425019;26;20015;-60
2024/04/17 11:09:34;;;;;;;2.35;0.98;;;17.00;76.00;;;;;;5422800;26;20414;-60
2024/04/17 11:12:02;;;;;;;3.88;1.20;;;17.00;75.90;;;;;;5422238;26;20009;-60
2024/04/17 11:14:28;;;;;;;2.65;1.00;;;17.00;75.90;;;;;;5418308;26;20003;-60
2024/04/17 11:16:55;;;;;;;3.17;1.10;;;17.00;75.80;;;;;;5422408;26;20010;-60
2024/04/17 11:19:22;;;;;;;2.83;0.98;;;17.00;75.80;;;;;;5431028;26;20987;-60
2024/04/17 11:21:49;;;;;;;4.10;1.27;;;17.00;75.90;;;;;;5417091;26;19999;-60
2024/04/17 11:24:19;;;;;;;3.67;1.20;;;17.00;75.90;;;;;;5433753;26;20318;-60
2024/04/17 11:26:45;;;;;;;3.45;1.10;;;17.00;75.90;;;;;;5427365;26;20018;-60
2024/04/17 11:29:18;;;;;;;3.92;1.00;;;16.90;75.80;;;;;;5430976;26;20002;-60
2024/04/17 11:31:44;;;;;;;3.47;1.25;;;17.00;75.80;;;;;;5426739;26;20018;-60
2024/04/17 11:34:24;;;;;;;3.60;1.00;;;17.00;75.80;;;;;;5428857;26;20006;-60
2024/04/17 11:36:49;;;;;;;;;;;16.90;75.80;;;;;;5431522;26;20462;-60
2024/04/17 11:39:19;;;;;;;4.63;1.23;;;16.90;75.70;;;;;;5429276;26;19924;-60
2024/04/17 11:41:49;;;;;;;4.07;1.15;;;17.00;75.80;;;;;;5429172;26;20035;-60
2024/04/17 11:44:15;;;;;;;3.17;1.10;;;17.00;75.80;;;;;;5433030;26;20003;-61
2024/04/17 11:46:41;;;;;;;3.78;1.20;;;17.00;75.90;;;;;;5428830;26;20454;-60
2024/04/17 11:49:11;;;;;;;3.78;1.10;;;17.00;75.90;;;;;;5430012;26;20015;-59
2024/04/17 11:51:37;;;;;;;3.53;1.10;;;17.00;75.90;;;;;;5425093;26;20004;-59
2024/04/17 11:54:03;;;;;;;3.67;1.13;;;17.00;75.90;;;;;;5430789;26;19999;-60
2024/04/17 11:56:31;;;;;;;3.92;1.02;;;17.00;76.00;;;;;;5428092;26;20073;-60
2024/04/17 11:59:00;;;;;;;3.30;1.10;;;17.00;76.00;;;;;;5429659;26;20053;-60
2024/04/17 12:01:25;;;;;;;3.83;1.27;;;17.00;75.90;;;;;;5426367;26;20014;-60
2024/04/17 12:03:51;;;;;;;2.30;0.88;;;17.00;75.90;;;;;;5435145;26;20059;-60
2024/04/17 12:06:19;;;;;;;3.47;1.10;;;17.00;75.90;;;;;;5426238;26;20039;-59
2024/04/17 12:08:45;;;;;;;2.90;1.10;;;17.10;76.00;;;;;;5419781;26;20000;-59
2024/04/17 12:11:10;;;;;;;3.40;1.10;;;17.00;75.90;;;;;;5422487;26;20015;-59
2024/04/17 12:13:36;;;;;;;3.95;1.30;;;17.10;76.00;;;;;;5437562;26;19994;-59
2024/04/17 12:16:03;;;;;;;3.28;1.02;;;17.10;76.00;;;;;;5429385;26;20686;-59
2024/04/17 12:18:29;;;;;;;4.03;1.00;;;17.10;76.00;;;;;;5425263;26;20346;-59
2024/04/17 12:20:54;;;;;;;6.65;1.27;;;17.10;76.00;;;;;;5429807;26;20004;-59
2024/04/17 12:23:20;;;;;;;4.13;1.15;;;17.10;75.80;;;;;;5426190;26;20143;-59
2024/04/17 12:28:31;;;;;;;3.00;1.10;;;17.20;75.80;;;;;;5430847;26;20013;-59
2024/04/17 12:31:00;;;;;;;3.85;1.10;;;17.20;75.80;;;;;;5426315;26;20011;-59
2024/04/17 12:33:26;;;;;;;3.40;1.20;;;17.10;75.70;;;;;;5429156;26;20076;-59
2024/04/17 12:35:53;;;;;;;1.80;0.90;;;17.10;75.60;;;;;;5428150;26;20007;-60
2024/04/17 12:38:18;;;;;;;3.30;0.95;;;17.10;75.60;;;;;;5431753;26;20032;-59
2024/04/17 12:40:44;;;;;;;4.05;1.10;;;17.10;75.60;;;;;;5430228;26;19998;-59
2024/04/17 12:43:10;;;;;;;3.08;1.10;;;17.10;75.60;;;;;;5428735;26;20014;-59
2024/04/17 12:45:35;;;;;;;3.60;1.20;;;17.10;75.60;;;;;;5431816;26;20010;-59
2024/04/17 12:48:01;;;;;;;4.15;1.20;;;17.10;75.60;;;;;;5432829;26;20845;-59